Time;durP1;ratioP1;P1;durP2;ratioP2;P2;SDS_P1;SDS_P2;PMS_P1;PMS_P2;Temp;Humidity;BMP_temperature;BMP_pressure;BME280_temperature;BME280_humidity;BME280_pressure;Samples;Min_cycle;Max_cycle;Signal;HPM_P1;HPM_P2
2022/12/20 00:01:27;;;;;;;86.22;41.08;;;5.10;99.90;;;;;;5036965;28;20124;-69
2022/12/20 00:03:56;;;;;;;81.90;40.35;;;5.10;99.90;;;;;;5034014;28;20049;-69
2022/12/20 00:06:23;;;;;;;77.45;39.45;;;5.00;99.90;;;;;;5033693;28;20037;-68
2022/12/20 00:08:55;;;;;;;70.28;39.40;;;4.90;99.90;;;;;;5031961;28;20344;-70
2022/12/20 00:11:22;;;;;;;80.28;40.30;;;5.00;99.90;;;;;;5034382;28;20523;-68
2022/12/20 00:13:49;;;;;;;83.00;41.60;;;4.90;99.90;;;;;;5031780;28;20041;-70
2022/12/20 00:16:18;;;;;;;76.95;41.92;;;4.90;99.90;;;;;;5036419;28;20164;-69
2022/12/20 00:18:45;;;;;;;76.32;39.30;;;4.90;99.90;;;;;;5035690;28;20041;-69
2022/12/20 00:21:14;;;;;;;73.72;36.90;;;4.80;99.90;;;;;;5034974;28;20127;-69
2022/12/20 00:23:41;;;;;;;93.22;46.95;;;4.80;99.90;;;;;;5031561;28;20045;-70
2022/12/20 00:26:14;;;;;;;78.93;40.08;;;4.90;99.90;;;;;;5034546;28;20495;-69
2022/12/20 00:28:42;;;;;;;82.10;41.70;;;4.90;99.90;;;;;;5031582;28;20538;-69
2022/12/20 00:31:10;;;;;;;72.03;39.75;;;4.90;99.90;;;;;;5035434;28;20327;-69
2022/12/20 00:33:38;;;;;;;84.25;43.25;;;4.90;99.90;;;;;;5037111;28;20402;-69
2022/12/20 00:36:07;;;;;;;84.88;43.05;;;4.90;99.90;;;;;;5034333;28;20045;-68
2022/12/20 00:38:34;;;;;;;87.20;43.08;;;4.80;99.90;;;;;;5035727;28;20411;-70
2022/12/20 00:41:04;;;;;;;79.55;40.45;;;4.70;99.90;;;;;;5031726;28;20297;-68
2022/12/20 00:43:32;;;;;;;89.03;42.17;;;4.80;99.90;;;;;;5034416;28;20569;-70
2022/12/20 00:45:59;;;;;;;82.63;41.50;;;4.70;99.90;;;;;;5015977;28;20037;-69
2022/12/20 00:48:27;;;;;;;86.05;41.28;;;4.60;99.90;;;;;;5039620;28;20041;-69
2022/12/20 00:50:59;;;;;;;71.95;38.35;;;4.70;99.90;;;;;;5035970;28;20041;-69
2022/12/20 00:53:26;;;;;;;82.18;43.03;;;4.70;99.90;;;;;;5035662;28;20148;-68
2022/12/20 00:55:53;;;;;;;85.25;42.42;;;4.80;99.90;;;;;;5036231;28;20045;-69
2022/12/20 00:58:20;;;;;;;74.78;36.92;;;4.80;99.90;;;;;;5034193;28;20135;-68
2022/12/20 01:00:47;;;;;;;76.88;40.53;;;4.80;99.90;;;;;;5028941;28;20702;-69
2022/12/20 01:03:23;;;;;;;85.45;38.90;;;4.80;99.90;;;;;;5033050;28;20429;-69
2022/12/20 01:05:56;;;;;;;82.50;38.92;;;4.90;99.90;;;;;;5031645;28;20419;-69
2022/12/20 01:08:24;;;;;;;83.53;42.30;;;4.90;99.90;;;;;;5032033;28;20040;-69
2022/12/20 01:11:30;;;;;;;83.90;39.90;;;4.90;99.90;;;;;;5013279;28;20503;-70
2022/12/20 01:14:02;;;;;;;;;;;4.90;99.90;;;;;;4944303;28;20109;-70
2022/12/20 01:16:35;;;;;;;87.38;39.92;;;4.70;99.90;;;;;;5019067;28;20301;-70
2022/12/20 01:19:02;;;;;;;79.82;38.25;;;4.80;99.90;;;;;;5033308;28;20041;-69
2022/12/20 01:21:29;;;;;;;71.45;36.30;;;4.80;99.90;;;;;;5030839;28;20406;-69
2022/12/20 01:23:56;;;;;;;85.53;42.33;;;4.80;99.90;;;;;;5030470;28;20487;-68
2022/12/20 01:26:26;;;;;;;73.25;39.72;;;4.90;99.90;;;;;;5035029;28;20044;-69
2022/12/20 01:28:55;;;;;;;77.18;38.83;;;4.90;99.90;;;;;;5031909;28;20503;-68
2022/12/20 01:31:23;;;;;;;81.78;39.72;;;4.90;99.90;;;;;;5034802;28;20037;-68
2022/12/20 01:33:51;;;;;;;84.43;41.30;;;4.90;99.90;;;;;;5031471;28;20136;-70
2022/12/20 01:36:20;;;;;;;77.60;39.35;;;4.90;99.90;;;;;;5033897;28;20040;-70
2022/12/20 01:38:47;;;;;;;85.45;39.35;;;4.90;99.90;;;;;;5029328;28;20048;-69
2022/12/20 01:41:16;;;;;;;75.30;36.90;;;5.00;99.90;;;;;;5032237;28;20515;-70
2022/12/20 01:43:54;;;;;;;80.65;38.45;;;5.00;99.90;;;;;;5032317;28;20044;-68
2022/12/20 01:46:23;;;;;;;71.28;37.42;;;5.00;99.90;;;;;;5030708;28;20045;-68
2022/12/20 01:48:59;;;;;;;81.28;39.70;;;5.00;99.90;;;;;;5032980;28;20033;-69
2022/12/20 01:51:28;;;;;;;69.50;36.20;;;5.00;99.90;;;;;;5034281;28;20529;-68
2022/12/20 01:54:02;;;;;;;72.32;36.47;;;5.10;99.90;;;;;;5065219;28;20155;-69
2022/12/20 01:56:29;;;;;;;59.95;34.80;;;5.20;99.90;;;;;;5029451;28;20041;-70
2022/12/20 01:58:57;;;;;;;68.35;36.10;;;5.30;99.90;;;;;;5032532;28;20052;-68
2022/12/20 02:01:24;;;;;;;65.53;35.30;;;5.30;99.90;;;;;;5033953;28;20037;-68
2022/12/20 02:03:54;;;;;;;68.45;35.55;;;5.40;99.90;;;;;;5033370;28;20148;-70
2022/12/20 02:06:23;;;;;;;62.50;34.38;;;5.40;99.90;;;;;;5030811;28;20037;-69
2022/12/20 02:08:54;;;;;;;65.65;36.55;;;5.50;99.90;;;;;;5033142;28;20132;-70
2022/12/20 02:11:49;;;;;;;71.97;37.22;;;5.50;99.90;;;;;;5029276;28;20133;-68
2022/12/20 02:14:22;;;;;;;65.30;35.63;;;5.60;99.90;;;;;;5032987;28;20052;-69
2022/12/20 02:16:57;;;;;;;68.78;35.97;;;5.60;99.90;;;;;;5034353;28;20507;-68
2022/12/20 02:19:42;;;;;;;68.65;37.40;;;5.70;99.90;;;;;;5032566;28;20053;-69
2022/12/20 02:22:27;;;;;;;75.28;39.38;;;5.60;99.90;;;;;;5030478;28;20571;-68
2022/12/20 02:24:56;;;;;;;;;;;5.50;99.90;;;;;;5015003;28;20554;-69
2022/12/20 02:28:06;;;;;;;59.75;31.77;;;5.50;99.90;;;;;;5063117;28;19932;-68
2022/12/20 02:30:42;;;;;;;57.72;32.53;;;5.50;99.90;;;;;;5029547;28;20047;-69
2022/12/20 02:33:11;;;;;;;74.00;36.22;;;5.50;99.90;;;;;;5038344;28;20033;-69
2022/12/20 02:35:40;;;;;;;65.00;35.10;;;5.60;99.90;;;;;;5035417;28;20055;-69
2022/12/20 02:38:36;;;;;;;72.30;35.65;;;5.60;99.90;;;;;;5040630;28;20043;-68
2022/12/20 02:41:13;;;;;;;63.47;34.78;;;5.70;99.90;;;;;;5038697;28;20045;-70
2022/12/20 02:46:31;;;;;;;52.25;30.55;;;5.90;99.90;;;;;;5031883;28;20059;-70
2022/12/20 02:49:03;;;;;;;66.88;33.33;;;6.00;99.90;;;;;;5032088;28;20611;-69
2022/12/20 02:51:31;;;;;;;52.90;31.02;;;5.90;99.90;;;;;;5036589;28;20050;-69
2022/12/20 02:53:59;;;;;;;50.50;30.35;;;5.90;99.90;;;;;;5044331;28;20041;-69
2022/12/20 02:56:35;;;;;;;55.35;31.65;;;5.90;99.90;;;;;;5042074;28;20045;-69
2022/12/20 02:59:04;;;;;;;63.38;33.90;;;5.90;99.90;;;;;;5021029;28;20044;-68
2022/12/20 03:01:37;;;;;;;52.65;30.70;;;6.00;99.90;;;;;;5035261;28;20068;-69
2022/12/20 03:04:06;;;;;;;56.58;30.85;;;6.00;99.90;;;;;;5047662;28;20491;-69
2022/12/20 03:06:33;;;;;;;53.92;30.83;;;5.90;99.90;;;;;;5036827;28;20033;-70
2022/12/20 03:09:00;;;;;;;52.42;30.75;;;5.90;99.90;;;;;;5036654;28;20068;-70
2022/12/20 03:11:29;;;;;;;58.60;33.40;;;5.90;99.90;;;;;;5039507;28;20045;-69
2022/12/20 03:13:56;;;;;;;51.65;31.42;;;5.80;99.90;;;;;;5036979;28;20044;-70
2022/12/20 03:16:22;;;;;;;54.70;32.03;;;5.90;99.90;;;;;;5036528;28;20144;-69
2022/12/20 03:18:49;;;;;;;54.97;31.92;;;5.80;99.90;;;;;;5033017;28;20049;-69
2022/12/20 03:21:16;;;;;;;61.55;33.63;;;5.80;99.90;;;;;;5043211;28;20048;-69
2022/12/20 03:23:42;;;;;;;54.92;32.25;;;5.80;99.90;;;;;;5033927;28;20049;-69
2022/12/20 03:26:09;;;;;;;53.53;31.30;;;5.70;99.90;;;;;;5035207;28;20629;-69
2022/12/20 03:28:43;;;;;;;54.08;31.48;;;5.70;99.90;;;;;;5031285;28;20051;-69
2022/12/20 03:31:14;;;;;;;57.72;32.97;;;5.60;99.90;;;;;;5049595;28;20138;-69
2022/12/20 03:33:45;;;;;;;52.83;29.88;;;5.60;99.90;;;;;;5033079;28;20621;-68
2022/12/20 03:36:12;;;;;;;55.58;32.50;;;5.60;99.90;;;;;;5035540;28;20037;-68
2022/12/20 03:38:40;;;;;;;57.03;33.17;;;5.60;99.90;;;;;;5039102;28;20082;-70
2022/12/20 03:41:07;;;;;;;57.25;33.72;;;5.60;99.90;;;;;;5033235;28;20037;-69
2022/12/20 03:43:34;;;;;;;56.10;33.17;;;5.60;99.90;;;;;;5032978;28;20043;-70
2022/12/20 03:46:01;;;;;;;50.03;28.83;;;5.70;99.90;;;;;;5033958;28;20063;-69
2022/12/20 03:48:33;;;;;;;60.50;33.83;;;5.60;99.90;;;;;;5041920;28;20618;-69
2022/12/20 03:50:59;;;;;;;56.22;31.55;;;5.60;99.90;;;;;;5032251;28;20245;-70
2022/12/20 03:53:26;;;;;;;60.25;32.92;;;5.60;99.90;;;;;;5036069;28;20477;-70
2022/12/20 03:55:53;;;;;;;54.05;32.42;;;5.70;99.90;;;;;;5031188;28;20055;-68
2022/12/20 03:58:21;;;;;;;59.85;33.05;;;5.60;99.90;;;;;;5026984;23;20073;-76
2022/12/20 04:00:59;;;;;;;55.25;32.95;;;5.60;99.90;;;;;;4952959;28;20054;-69
2022/12/20 04:03:37;;;;;;;60.47;32.42;;;5.60;99.90;;;;;;4942169;28;20046;-69
2022/12/20 04:06:04;;;;;;;54.30;31.88;;;5.60;99.90;;;;;;4967562;28;20038;-69
2022/12/20 04:08:31;;;;;;;53.63;32.42;;;5.60;99.90;;;;;;4956670;28;20465;-67
2022/12/20 04:11:16;;;;;;;57.03;33.97;;;5.60;99.90;;;;;;4953001;28;20146;-68
2022/12/20 04:13:52;;;;;;;59.58;33.67;;;5.60;99.90;;;;;;4954304;28;20061;-70
2022/12/20 04:16:25;;;;;;;51.75;32.25;;;5.70;99.90;;;;;;4947833;28;20414;-70
2022/12/20 04:18:53;;;;;;;53.78;31.13;;;5.70;99.90;;;;;;4952850;28;20425;-67
2022/12/20 04:21:29;;;;;;;54.80;32.92;;;5.70;99.90;;;;;;4946971;28;20054;-69
2022/12/20 04:23:58;;;;;;;54.92;32.92;;;5.60;99.90;;;;;;4951404;28;20506;-68
2022/12/20 04:26:34;;;;;;;51.83;30.50;;;5.70;99.90;;;;;;4951909;28;20089;-70
2022/12/20 04:29:02;;;;;;;56.90;32.78;;;5.70;99.90;;;;;;4946146;28;20053;-69
2022/12/20 04:31:29;;;;;;;57.92;33.95;;;5.70;99.90;;;;;;4954198;28;20064;-69
2022/12/20 04:33:56;;;;;;;59.53;34.22;;;5.70;99.90;;;;;;4936222;28;20106;-70
2022/12/20 04:36:23;;;;;;;53.83;33.30;;;5.80;99.90;;;;;;4950903;28;20053;-69
2022/12/20 04:38:52;;;;;;;52.15;32.78;;;5.80;99.90;;;;;;4946221;28;20051;-69
2022/12/20 04:41:22;;;;;;;53.47;31.50;;;5.80;99.90;;;;;;4950818;28;20062;-69
2022/12/20 04:43:57;;;;;;;58.20;32.67;;;5.80;99.90;;;;;;4936077;28;20050;-69
2022/12/20 04:46:31;;;;;;;60.38;35.47;;;5.80;99.90;;;;;;4956786;28;20133;-69
2022/12/20 04:49:00;;;;;;;56.92;34.05;;;5.80;99.90;;;;;;4971898;28;20616;-70
2022/12/20 04:51:30;;;;;;;62.40;34.15;;;5.90;99.90;;;;;;4957560;28;20094;-70
2022/12/20 04:53:57;;;;;;;57.65;34.00;;;5.80;99.90;;;;;;4949863;28;20044;-68
2022/12/20 04:56:44;;;;;;;60.55;34.83;;;5.80;99.90;;;;;;4946724;28;20100;-68
2022/12/20 04:59:15;;;;;;;63.75;36.58;;;5.80;99.90;;;;;;4955934;28;20137;-69
2022/12/20 05:01:44;;;;;;;65.53;35.05;;;5.80;99.90;;;;;;4942495;28;20047;-68
2022/12/20 05:04:16;;;;;;;63.17;36.75;;;5.80;99.90;;;;;;4952390;28;20038;-69
2022/12/20 05:06:43;;;;;;;64.90;37.50;;;5.80;99.90;;;;;;4942462;28;20057;-69
2022/12/20 05:09:10;;;;;;;72.38;38.30;;;5.80;99.90;;;;;;4949497;28;20043;-68
2022/12/20 05:11:37;;;;;;;65.68;36.30;;;5.70;99.90;;;;;;4948779;28;20416;-69
2022/12/20 05:14:07;;;;;;;66.10;35.70;;;5.80;99.90;;;;;;4952032;28;20488;-69
2022/12/20 05:16:34;;;;;;;71.35;39.72;;;5.80;99.90;;;;;;4941725;28;20070;-68
2022/12/20 05:19:02;;;;;;;72.25;37.95;;;5.80;99.90;;;;;;4952466;28;20055;-69
2022/12/20 05:27:22;;;;;;;66.93;35.22;;;5.70;99.90;;;;;;4951337;28;20332;-69
2022/12/20 05:29:49;;;;;;;65.05;36.70;;;5.80;99.90;;;;;;4945860;28;20889;-70
2022/12/20 05:32:16;;;;;;;69.85;35.75;;;5.70;99.90;;;;;;4953128;28;20038;-70
2022/12/20 05:34:43;;;;;;;71.22;37.92;;;5.70;99.90;;;;;;4952515;28;20047;-69
2022/12/20 05:37:10;;;;;;;76.72;38.88;;;5.70;99.90;;;;;;4954156;28;20062;-70
2022/12/20 05:39:38;;;;;;;76.85;38.17;;;5.80;99.90;;;;;;4951729;28;20042;-70
2022/12/20 05:42:11;;;;;;;73.22;37.50;;;5.80;99.90;;;;;;4938172;28;20058;-69
2022/12/20 05:44:38;;;;;;;71.78;39.25;;;5.90;99.90;;;;;;4954745;28;20103;-69
2022/12/20 05:47:04;;;;;;;79.78;38.78;;;5.90;99.90;;;;;;4930951;28;20712;-70
2022/12/20 05:49:34;;;;;;;74.88;39.20;;;5.80;99.90;;;;;;4955261;28;20126;-69
2022/12/20 05:52:03;;;;;;;79.90;41.00;;;5.80;99.90;;;;;;4946032;28;20042;-69
2022/12/20 05:54:30;;;;;;;80.78;41.63;;;5.80;99.90;;;;;;4954901;28;20046;-70
2022/12/20 05:57:13;;;;;;;68.95;37.00;;;5.80;99.90;;;;;;4943478;28;20129;-69
2022/12/20 05:59:41;;;;;;;76.28;37.88;;;5.80;99.90;;;;;;4954061;28;20047;-70
2022/12/20 06:02:16;;;;;;;74.93;39.45;;;5.80;99.90;;;;;;4937778;28;20046;-70
2022/12/20 06:04:45;;;;;;;72.75;37.17;;;5.90;99.90;;;;;;4953032;28;20415;-70
2022/12/20 06:07:15;;;;;;;72.00;36.60;;;5.90;99.90;;;;;;4954541;28;20133;-70
2022/12/20 06:09:45;;;;;;;79.85;40.10;;;5.80;99.90;;;;;;4951912;28;20043;-70
2022/12/20 06:12:15;;;;;;;78.85;39.92;;;5.90;99.90;;;;;;4947760;28;20035;-70
2022/12/20 06:14:42;;;;;;;83.05;41.90;;;5.90;99.90;;;;;;4954258;28;20047;-69
2022/12/20 06:17:11;;;;;;;85.80;41.97;;;5.90;99.90;;;;;;4953313;28;20038;-69
2022/12/20 06:19:40;;;;;;;79.78;40.85;;;5.80;99.90;;;;;;4954687;28;20042;-70
2022/12/20 06:22:09;;;;;;;86.53;43.28;;;5.80;99.90;;;;;;4940590;28;20046;-69
2022/12/20 06:24:46;;;;;;;92.57;47.00;;;5.80;99.90;;;;;;4951073;28;20051;-69
2022/12/20 06:27:17;;;;;;;90.18;42.97;;;5.80;99.90;;;;;;4953873;28;20055;-69
2022/12/20 06:29:53;;;;;;;87.38;43.60;;;5.70;99.90;;;;;;4952696;28;20094;-69
2022/12/20 06:32:22;;;;;;;82.20;41.80;;;5.80;99.90;;;;;;4958967;28;20047;-68
2022/12/20 06:34:50;;;;;;;95.50;46.10;;;5.70;99.90;;;;;;4949940;28;20440;-69
2022/12/20 06:37:16;;;;;;;90.50;46.25;;;5.70;99.90;;;;;;4956720;28;20884;-69
2022/12/20 06:39:43;;;;;;;88.95;47.10;;;5.70;99.90;;;;;;4949718;28;20055;-68
2022/12/20 06:42:10;;;;;;;80.93;43.15;;;5.70;99.90;;;;;;4950801;28;20049;-69
2022/12/20 06:44:38;;;;;;;87.03;43.08;;;5.70;99.90;;;;;;4956918;28;20698;-69
2022/12/20 06:47:05;;;;;;;83.55;43.45;;;5.80;99.90;;;;;;4953536;28;20035;-70
2022/12/20 06:49:31;;;;;;;87.45;44.58;;;5.80;99.90;;;;;;4952190;28;20094;-69
2022/12/20 06:51:58;;;;;;;77.03;43.03;;;5.80;99.90;;;;;;4947265;28;20043;-69
2022/12/20 06:54:34;;;;;;;78.70;41.90;;;5.80;99.90;;;;;;4950632;28;20057;-69
2022/12/20 06:57:01;;;;;;;84.55;43.38;;;5.80;99.90;;;;;;4955632;28;20051;-69
2022/12/20 06:59:28;;;;;;;80.07;42.88;;;5.80;99.90;;;;;;4955808;28;20517;-69
2022/12/20 07:01:54;;;;;;;78.57;41.45;;;5.80;99.90;;;;;;4946205;28;20061;-69
2022/12/20 07:04:21;;;;;;;81.63;41.05;;;5.80;99.90;;;;;;4951326;28;20047;-67
2022/12/20 07:06:48;;;;;;;78.88;40.47;;;5.80;99.90;;;;;;4952538;28;20054;-69
2022/12/20 07:09:15;;;;;;;71.43;37.97;;;5.80;99.90;;;;;;4945528;28;20046;-69
2022/12/20 07:11:42;;;;;;;71.80;40.97;;;5.80;99.90;;;;;;4944303;28;20057;-67
2022/12/20 07:14:09;;;;;;;74.80;40.20;;;5.80;99.90;;;;;;4948519;28;20074;-69
2022/12/20 07:16:36;;;;;;;74.78;41.75;;;5.80;99.90;;;;;;4951502;28;20150;-68
2022/12/20 07:19:03;;;;;;;80.13;39.65;;;5.80;99.90;;;;;;4956321;28;20267;-69
2022/12/20 07:21:31;;;;;;;71.97;38.55;;;5.80;99.90;;;;;;4957236;28;20493;-69
2022/12/20 07:23:57;;;;;;;77.45;40.90;;;5.90;99.90;;;;;;4953001;28;20201;-68
2022/12/20 07:26:24;;;;;;;64.07;36.20;;;5.90;99.90;;;;;;4951787;28;20047;-69
2022/12/20 07:28:51;;;;;;;76.43;38.80;;;5.90;99.90;;;;;;4950562;28;20441;-68
2022/12/20 07:31:18;;;;;;;60.20;35.28;;;5.90;99.90;;;;;;4954068;28;20050;-68
2022/12/20 07:33:44;;;;;;;62.03;36.35;;;6.00;99.90;;;;;;4947522;28;20089;-68
2022/12/20 07:36:12;;;;;;;61.08;35.92;;;6.00;99.90;;;;;;4943380;28;20145;-69
2022/12/20 07:38:39;;;;;;;57.47;33.75;;;6.10;99.90;;;;;;4951831;28;20201;-68
2022/12/20 07:41:11;;;;;;;67.97;34.75;;;6.10;99.90;;;;;;4950563;28;20050;-69
2022/12/20 07:43:38;;;;;;;61.00;35.42;;;6.20;99.90;;;;;;4957451;28;20580;-68
2022/12/20 07:46:06;;;;;;;56.45;33.67;;;6.20;99.90;;;;;;4948134;28;20035;-69
2022/12/20 07:48:34;;;;;;;58.65;34.03;;;6.30;99.90;;;;;;4957470;28;20176;-68
2022/12/20 07:51:05;;;;;;;59.78;35.78;;;6.30;99.90;;;;;;4944091;28;20038;-68
2022/12/20 07:53:35;;;;;;;57.30;32.92;;;6.40;99.90;;;;;;4946510;28;20097;-69
2022/12/20 07:56:04;;;;;;;60.88;33.30;;;6.40;99.90;;;;;;4955287;28;20603;-68
2022/12/20 07:58:33;;;;;;;50.80;27.42;;;6.50;99.90;;;;;;4954566;28;20046;-68
2022/12/20 08:01:01;;;;;;;51.05;29.10;;;6.40;99.90;;;;;;4950144;28;20280;-68
2022/12/20 08:03:41;;;;;;;57.15;31.85;;;6.40;99.90;;;;;;4952462;28;20049;-67
2022/12/20 08:06:08;;;;;;;57.00;31.83;;;6.40;99.90;;;;;;4964308;28;20053;-68
2022/12/20 08:08:46;;;;;;;49.95;30.42;;;6.50;99.90;;;;;;4953562;28;20429;-68
2022/12/20 08:11:13;;;;;;;51.53;30.42;;;6.40;99.90;;;;;;4969265;28;20053;-66
2022/12/20 08:13:40;;;;;;;46.13;25.77;;;6.40;99.90;;;;;;4975348;28;20051;-66
2022/12/20 08:16:12;;;;;;;49.40;30.75;;;6.40;99.90;;;;;;4968660;28;20505;-68
2022/12/20 08:18:39;;;;;;;48.75;30.67;;;6.40;99.90;;;;;;4951947;28;20047;-68
2022/12/20 08:21:06;;;;;;;47.80;29.38;;;6.50;99.90;;;;;;4945592;28;20050;-69
2022/12/20 08:23:33;;;;;;;48.85;29.75;;;6.50;99.90;;;;;;4953194;28;20535;-67
2022/12/20 08:26:01;;;;;;;53.08;30.60;;;6.50;99.90;;;;;;4948219;28;20142;-68
2022/12/20 08:28:27;;;;;;;45.67;28.40;;;6.50;99.90;;;;;;4956250;28;20404;-68
2022/12/20 08:31:03;;;;;;;47.20;31.60;;;6.50;99.90;;;;;;4950716;28;20421;-67
2022/12/20 08:33:32;;;;;;;54.35;32.40;;;6.60;99.90;;;;;;4947476;28;20047;-67
2022/12/20 08:36:01;;;;;;;46.90;32.13;;;6.60;99.90;;;;;;4945431;28;20593;-67
2022/12/20 08:38:30;;;;;;;51.70;31.52;;;6.60;99.90;;;;;;4946332;28;20496;-66
2022/12/20 08:41:09;;;;;;;51.15;33.33;;;6.60;99.90;;;;;;4950236;28;20069;-70
2022/12/20 08:43:37;;;;;;;48.15;29.48;;;6.60;99.90;;;;;;4954541;28;20121;-67
2022/12/20 08:46:05;;;;;;;49.38;30.30;;;6.60;99.90;;;;;;4951498;28;20066;-66
2022/12/20 08:48:32;;;;;;;54.58;30.67;;;6.60;99.90;;;;;;4949481;28;20100;-69
2022/12/20 08:51:02;;;;;;;49.85;33.00;;;6.60;99.90;;;;;;4967589;28;20046;-68
2022/12/20 08:53:29;;;;;;;49.03;25.95;;;6.70;99.90;;;;;;4938288;28;20059;-67
2022/12/20 08:56:23;;;;;;;46.90;30.40;;;6.70;99.90;;;;;;4956426;28;20050;-66
2022/12/20 08:58:49;;;;;;;47.42;30.33;;;6.70;99.90;;;;;;4945945;28;20133;-67
2022/12/20 09:01:19;;;;;;;51.17;34.08;;;6.70;99.90;;;;;;4954121;28;20043;-67
2022/12/20 09:03:46;;;;;;;45.08;32.35;;;6.60;99.90;;;;;;4957977;28;20120;-67
2022/12/20 09:06:19;;;;;;;44.50;28.92;;;6.70;99.90;;;;;;4945161;28;20134;-67
2022/12/20 09:08:46;;;;;;;46.65;32.63;;;6.70;99.90;;;;;;4949865;28;20206;-66
2022/12/20 09:11:16;;;;;;;46.17;33.25;;;6.60;99.90;;;;;;4951411;28;20039;-67
2022/12/20 09:13:45;;;;;;;49.95;32.25;;;6.70;99.90;;;;;;4954085;28;20568;-67
2022/12/20 09:16:15;;;;;;;49.75;34.42;;;6.70;99.90;;;;;;4953702;28;20046;-69
2022/12/20 09:18:42;;;;;;;45.53;31.48;;;6.70;99.90;;;;;;4957627;28;20053;-68
2022/12/20 09:21:10;;;;;;;39.45;29.63;;;6.60;99.90;;;;;;4952668;28;20035;-70
2022/12/20 09:23:38;;;;;;;41.97;31.45;;;6.60;99.90;;;;;;4956421;28;20043;-67
2022/12/20 09:26:09;;;;;;;38.28;28.40;;;6.60;99.90;;;;;;4943390;28;20129;-69
2022/12/20 09:28:36;;;;;;;42.03;29.63;;;6.60;99.90;;;;;;4949460;28;20875;-70
2022/12/20 09:31:06;;;;;;;43.97;30.95;;;6.60;99.90;;;;;;4953098;28;20410;-66
2022/12/20 09:33:33;;;;;;;41.22;31.50;;;6.60;99.90;;;;;;4952052;28;20079;-67
2022/12/20 09:36:01;;;;;;;47.10;32.95;;;6.70;99.90;;;;;;4943291;28;20562;-65
2022/12/20 09:38:29;;;;;;;42.70;32.20;;;6.70;99.90;;;;;;4951382;28;20151;-69
2022/12/20 09:41:03;;;;;;;39.70;31.30;;;6.70;99.90;;;;;;4943359;28;20074;-67
2022/12/20 09:43:31;;;;;;;41.92;32.45;;;6.70;99.90;;;;;;4953325;28;20133;-67
2022/12/20 09:46:00;;;;;;;42.15;33.45;;;6.70;99.90;;;;;;4943406;28;20044;-66
2022/12/20 09:48:36;;;;;;;42.10;32.92;;;6.80;99.90;;;;;;4951188;28;20794;-67
2022/12/20 09:51:29;;;;;;;38.97;31.67;;;6.90;99.90;;;;;;4944631;28;20916;-68
2022/12/20 09:54:20;;;;;;;39.05;28.45;;;7.00;99.90;;;;;;4936670;28;20530;-68
2022/12/20 09:57:13;;;;;;;39.25;29.90;;;7.00;99.90;;;;;;4951916;28;20046;-66
2022/12/20 09:59:42;;;;;;;36.83;29.65;;;7.00;99.90;;;;;;4977636;23;20064;-68
2022/12/20 10:02:22;;;;;;;38.58;31.90;;;7.10;99.90;;;;;;4981451;28;20042;-68
2022/12/20 10:05:20;;;;;;;38.33;31.58;;;7.10;99.90;;;;;;4971071;28;20043;-68
2022/12/20 10:08:31;;;;;;;40.97;30.88;;;7.10;99.90;;;;;;4972209;28;20054;-68
2022/12/20 10:11:27;;;;;;;41.20;32.00;;;7.10;99.90;;;;;;4980247;28;20056;-68
2022/12/20 10:14:25;;;;;;;38.88;30.95;;;7.10;99.90;;;;;;4981300;28;20582;-68
2022/12/20 10:17:07;;;;;;;39.67;31.77;;;7.10;99.90;;;;;;4980197;28;20512;-68
2022/12/20 10:19:49;;;;;;;39.28;31.50;;;7.10;99.90;;;;;;4991030;28;20204;-68
2022/12/20 10:22:45;;;;;;;45.78;34.97;;;7.10;99.90;;;;;;4983368;28;20576;-68
2022/12/20 10:25:23;;;;;;;42.63;29.67;;;7.20;99.90;;;;;;4987689;28;20598;-68
2022/12/20 10:27:56;;;;;;;36.10;31.52;;;7.30;99.90;;;;;;4975805;28;20046;-68
2022/12/20 10:30:25;;;;;;;36.75;32.75;;;7.30;99.90;;;;;;5004564;28;20104;-67
2022/12/20 10:32:55;;;;;;;36.70;32.97;;;7.40;99.90;;;;;;4987136;28;20049;-68
2022/12/20 10:35:39;;;;;;;36.17;30.15;;;7.40;99.90;;;;;;4986384;28;20065;-67
2022/12/20 10:38:11;;;;;;;37.97;28.58;;;7.40;99.90;;;;;;4971333;28;20046;-67
2022/12/20 10:40:41;;;;;;;35.28;31.30;;;7.40;99.90;;;;;;4995796;28;20049;-67
2022/12/20 10:43:55;;;;;;;38.47;32.50;;;7.30;99.90;;;;;;4995557;28;20034;-68
2022/12/20 10:46:32;;;;;;;35.88;30.67;;;7.40;99.90;;;;;;4969940;28;20045;-67
2022/12/20 10:49:27;;;;;;;36.33;32.30;;;7.50;99.90;;;;;;4986457;28;20161;-67
2022/12/20 10:52:00;;;;;;;43.80;32.10;;;7.50;99.90;;;;;;4992302;28;20077;-67
2022/12/20 10:54:36;;;;;;;39.15;31.35;;;7.60;99.90;;;;;;4995152;28;20044;-67
2022/12/20 10:57:11;;;;;;;31.27;27.85;;;7.60;99.90;;;;;;4989994;28;20544;-67
2022/12/20 10:59:44;;;;;;;34.97;28.20;;;7.60;99.90;;;;;;4982461;28;20104;-70
2022/12/20 11:02:28;;;;;;;33.75;28.20;;;7.60;99.90;;;;;;4984625;28;20111;-70
2022/12/20 11:05:11;;;;;;;30.70;27.43;;;7.60;99.90;;;;;;4985257;28;20590;-70
2022/12/20 11:08:05;;;;;;;35.85;29.70;;;7.60;99.90;;;;;;4990586;28;20547;-68
2022/12/20 11:11:12;;;;;;;30.10;25.77;;;7.60;99.90;;;;;;4984265;28;20046;-70
2022/12/20 11:13:40;;;;;;;29.92;25.27;;;7.50;99.90;;;;;;4991579;28;20137;-70
2022/12/20 11:16:21;;;;;;;31.17;26.02;;;7.50;99.90;;;;;;4983432;28;20494;-67
2022/12/20 11:18:59;;;;;;;31.95;28.67;;;7.60;99.90;;;;;;4995004;28;20050;-67
2022/12/20 11:21:58;;;;;;;34.72;29.08;;;7.60;99.90;;;;;;4977526;28;20129;-68
2022/12/20 11:24:48;;;;;;;30.50;27.30;;;7.70;99.90;;;;;;4990020;28;20065;-68
2022/12/20 11:27:26;;;;;;;30.58;27.42;;;7.70;99.90;;;;;;4985325;28;20033;-68
2022/12/20 11:30:23;;;;;;;30.98;27.60;;;7.70;99.90;;;;;;4991354;28;20053;-70
2022/12/20 11:33:13;;;;;;;36.47;28.80;;;7.70;99.90;;;;;;4995257;28;20570;-68
2022/12/20 11:36:01;;;;;;;32.03;27.75;;;7.80;99.90;;;;;;4988380;28;20054;-68
2022/12/20 11:38:42;;;;;;;30.90;27.55;;;7.80;99.90;;;;;;4966660;28;20385;-67
2022/12/20 11:41:30;;;;;;;31.13;27.95;;;7.80;99.90;;;;;;4981549;28;20053;-68
2022/12/20 11:44:15;;;;;;;31.35;27.60;;;7.90;99.90;;;;;;4986550;28;20038;-67
2022/12/20 11:47:01;;;;;;;31.35;28.23;;;7.90;99.90;;;;;;5014968;28;20062;-68
2022/12/20 11:49:47;;;;;;;30.27;27.48;;;7.80;99.90;;;;;;4991399;28;20034;-68
2022/12/20 11:52:13;;;;;;;;;;;7.80;99.90;;;;;;4984593;28;20034;-68
2022/12/20 11:54:48;;;;;;;31.23;27.73;;;7.90;99.90;;;;;;5004601;28;20447;-68
2022/12/20 11:57:23;;;;;;;31.23;27.95;;;7.90;99.90;;;;;;4985609;28;20042;-68
2022/12/20 11:59:55;;;;;;;31.83;28.63;;;8.00;99.90;;;;;;4990868;28;20465;-68
2022/12/20 12:02:54;;;;;;;28.70;25.95;;;8.00;99.90;;;;;;4983345;28;20072;-68
2022/12/20 12:05:39;;;;;;;32.67;29.45;;;8.00;99.90;;;;;;4987080;28;20196;-68
2022/12/20 12:08:13;;;;;;;30.33;27.23;;;8.10;99.90;;;;;;4988113;28;20258;-68
2022/12/20 12:11:05;;;;;;;28.55;25.88;;;8.20;99.90;;;;;;4984493;28;20047;-68
2022/12/20 12:13:35;;;;;;;28.98;26.48;;;8.20;99.90;;;;;;4979007;28;20221;-68
2022/12/20 12:16:21;;;;;;;32.28;29.38;;;8.20;99.90;;;;;;4979297;28;20489;-68
2022/12/20 12:18:48;;;;;;;31.73;28.90;;;8.20;99.90;;;;;;4985983;28;20416;-67
2022/12/20 12:21:37;;;;;;;31.77;28.63;;;8.20;99.90;;;;;;4990429;28;20044;-68
2022/12/20 12:24:28;;;;;;;30.15;27.65;;;8.30;99.90;;;;;;4979536;28;20411;-68
2022/12/20 12:26:58;;;;;;;34.95;31.88;;;8.40;99.90;;;;;;4994636;28;20042;-68
2022/12/20 12:29:28;;;;;;;30.95;27.77;;;8.40;99.90;;;;;;4983116;28;20053;-68
2022/12/20 12:32:07;;;;;;;30.35;27.65;;;8.50;99.90;;;;;;4989874;28;20112;-68
2022/12/20 12:34:53;;;;;;;30.20;27.85;;;8.50;99.90;;;;;;4990122;28;20050;-68
2022/12/20 12:37:53;;;;;;;33.20;30.55;;;8.60;99.90;;;;;;4990504;28;20056;-68
2022/12/20 12:40:45;;;;;;;33.15;30.13;;;8.60;99.90;;;;;;4987139;28;20045;-68
2022/12/20 12:43:39;;;;;;;32.83;29.70;;;8.60;99.90;;;;;;4987992;28;20092;-68
2022/12/20 12:46:21;;;;;;;29.77;27.02;;;8.60;99.90;;;;;;4982350;28;20157;-68
2022/12/20 12:48:55;;;;;;;30.08;27.42;;;8.50;99.90;;;;;;4992786;28;20049;-68
2022/12/20 12:51:37;;;;;;;29.67;26.65;;;8.50;99.90;;;;;;4989076;28;20137;-69
2022/12/20 12:54:18;;;;;;;31.45;28.55;;;8.50;99.90;;;;;;4989125;28;20049;-68
2022/12/20 12:56:54;;;;;;;31.25;28.23;;;8.50;99.90;;;;;;4991994;28;20054;-68
2022/12/20 12:59:33;;;;;;;32.38;28.70;;;8.50;99.90;;;;;;4991630;28;20323;-68
2022/12/20 13:02:02;;;;;;;30.52;28.02;;;8.50;99.90;;;;;;4987413;28;20627;-68
2022/12/20 13:04:56;;;;;;;31.92;29.23;;;8.50;99.90;;;;;;4988051;28;20046;-68
2022/12/20 13:07:32;;;;;;;33.00;29.65;;;8.40;99.90;;;;;;4986914;28;20034;-68
2022/12/20 13:10:20;;;;;;;31.35;28.45;;;8.40;99.90;;;;;;4981452;28;20050;-69
2022/12/20 13:12:50;;;;;;;39.10;35.10;;;8.30;99.90;;;;;;4978123;28;20046;-68
2022/12/20 13:15:19;;;;;;;43.90;39.63;;;8.40;99.90;;;;;;4987825;28;20042;-69
2022/12/20 13:18:00;;;;;;;34.90;31.98;;;8.40;99.90;;;;;;4987259;28;20058;-69